Time;durP1;ratioP1;P1;durP2;ratioP2;P2;SDS_P1;SDS_P2;PMS_P1;PMS_P2;Temp;Humidity;BMP_temperature;BMP_pressure;BME280_temperature;BME280_humidity;BME280_pressure;Samples;Min_cycle;Max_cycle;Signal;HPM_P1;HPM_P2
2021/07/07 00:02:02;;;;;;;;;;;18.50;99.90;;;17.57;100.00;95612.41;10479507;28;2516;-79
2021/07/07 00:07:05;;;;;;;;;;;18.40;99.90;;;17.62;100.00;95609.50;10481023;28;2767;-79
2021/07/07 00:12:08;;;;;;;;;;;18.40;99.90;;;17.70;100.00;95616.06;10481860;28;2973;-79
2021/07/07 00:17:10;;;;;;;;;;;18.50;99.90;;;17.56;100.00;95611.63;10474894;28;2741;-79
2021/07/07 00:22:14;;;;;;;;;;;18.50;99.90;;;17.38;100.00;95565.75;10490647;28;3113;-80
2021/07/07 00:27:17;;;;;;;;;;;18.40;99.90;;;17.18;100.00;95549.00;10487229;28;3120;-79
2021/07/07 00:32:19;;;;;;;;;;;18.20;99.90;;;17.23;100.00;95575.19;10476689;28;2758;-78
2021/07/07 00:37:22;;;;;;;;;;;18.10;99.90;;;17.49;100.00;95602.31;10482164;28;3026;-79
2021/07/07 00:42:25;;;;;;;;;;;18.20;99.90;;;17.55;100.00;95603.75;10485182;28;2756;-79
2021/07/07 00:47:28;;;;;;;;;;;18.30;99.90;;;17.53;100.00;95603.28;10505205;28;2918;-81
2021/07/07 00:52:31;;;;;;;;;;;18.40;99.90;;;17.53;100.00;95611.44;10491311;28;3185;-80
2021/07/07 00:57:35;;;;;;;;;;;18.40;99.90;;;17.59;100.00;95604.72;10457972;28;2798;-79
2021/07/07 01:02:38;;;;;;;;;;;18.40;99.90;;;17.52;100.00;95596.28;10483509;28;2684;-80
2021/07/07 01:07:41;;;;;;;;;;;18.40;99.90;;;17.53;100.00;95584.28;10486971;28;2754;-78
2021/07/07 01:12:44;;;;;;;;;;;18.40;99.90;;;17.62;100.00;95581.53;10491863;28;2774;-80
2021/07/07 01:17:46;;;;;;;;;;;18.40;99.90;;;17.48;100.00;95576.28;10499416;28;2713;-80
2021/07/07 01:22:50;;;;;;;;;;;18.40;99.90;;;17.52;100.00;95569.09;10489632;28;2835;-79
2021/07/07 01:27:53;;;;;;;;;;;18.40;99.90;;;17.43;100.00;95562.84;10498719;28;2695;-80
2021/07/07 01:32:56;;;;;;;;;;;18.30;99.90;;;17.52;100.00;95572.59;10500849;28;2819;-81
2021/07/07 01:37:59;;;;;;;;;;;18.30;99.90;;;17.56;100.00;95583.63;10472213;28;2875;-79
2021/07/07 01:43:02;;;;;;;;;;;18.40;99.90;;;17.68;100.00;95602.78;10480592;28;2820;-78
2021/07/07 01:48:04;;;;;;;;;;;18.40;99.90;;;17.68;100.00;95602.78;10456912;28;3174;-78
2021/07/07 01:53:07;;;;;;;;;;;18.50;99.90;;;17.59;100.00;95577.53;10477227;28;2918;-75
2021/07/07 01:58:10;;;;;;;;;;;18.40;99.90;;;17.48;100.00;95581.72;10471633;28;2760;-78
2021/07/07 02:03:13;;;;;;;;;;;18.40;99.90;;;17.35;100.00;95585.41;10486955;28;2942;-80
2021/07/07 02:08:15;;;;;;;;;;;18.30;99.90;;;17.08;100.00;95584.63;10483837;28;2863;-81
2021/07/07 02:13:18;;;;;;;;;;;18.20;99.90;;;17.11;100.00;95591.31;10481795;28;3260;-81
2021/07/07 02:18:24;;;;;;;;;;;18.10;99.90;;;17.09;100.00;95607.16;10475920;28;3205;-79
2021/07/07 02:23:27;;;;;;;;;;;17.90;99.90;;;17.02;100.00;95613.06;10477522;28;3060;-80
2021/07/07 02:28:30;;;;;;;;;;;18.00;99.90;;;16.91;100.00;95590.84;10479734;28;2693;-80
2021/07/07 02:33:33;;;;;;;;;;;17.90;99.90;;;16.85;100.00;95594.03;10484404;28;2744;-80
2021/07/07 02:38:35;;;;;;;;;;;17.90;99.90;;;16.78;100.00;95580.13;10501983;28;2795;-81
2021/07/07 02:43:38;;;;;;;;;;;17.80;99.90;;;16.78;100.00;95585.56;10502731;28;3099;-79
2021/07/07 02:48:41;;;;;;;;;;;17.70;99.90;;;16.75;100.00;95585.06;10518297;28;2996;-80
2021/07/07 02:53:43;;;;;;;;;;;17.70;99.90;;;16.77;100.00;95605.66;10527175;28;2058;-80
2021/07/07 02:58:46;;;;;;;;;;;17.70;99.90;;;16.82;100.00;95624.53;10532556;28;2118;-78
2021/07/07 03:03:49;;;;;;;;;;;17.70;99.90;;;16.90;100.00;95642.75;10500284;28;2684;-79
2021/07/07 03:08:52;;;;;;;;;;;17.80;99.90;;;17.01;100.00;95646.75;10509286;28;2007;-79
2021/07/07 03:13:56;;;;;;;;;;;17.90;99.90;;;16.96;100.00;95636.84;10500185;28;2112;-80
2021/07/07 03:18:59;;;;;;;;;;;17.90;99.90;;;16.91;100.00;95622.63;10532899;28;2075;-81
2021/07/07 03:24:02;;;;;;;;;;;17.80;99.90;;;16.75;100.00;95598.66;10514722;28;2040;-80
2021/07/07 03:29:05;;;;;;;;;;;17.80;99.90;;;16.74;100.00;95613.34;10508941;28;2086;-79
2021/07/07 03:34:07;;;;;;;;;;;17.70;99.90;;;16.75;100.00;95623.06;10505881;28;1947;-80
2021/07/07 03:39:10;;;;;;;;;;;17.70;99.90;;;16.72;100.00;95631.84;10544478;28;2032;-82
2021/07/07 03:44:13;;;;;;;;;;;17.70;99.90;;;16.85;100.00;95640.97;10531278;28;1864;-81
2021/07/07 03:49:15;;;;;;;;;;;17.70;99.90;;;16.97;100.00;95653.94;10547749;28;1976;-80
2021/07/07 03:54:18;;;;;;;;;;;17.80;99.90;;;17.02;100.00;95656.50;10527842;28;1999;-79
2021/07/07 03:59:21;;;;;;;;;;;17.90;99.90;;;16.96;100.00;95663.19;10530258;28;2122;-79
2021/07/07 04:04:24;;;;;;;;;;;17.90;99.90;;;16.91;100.00;95655.19;10497434;28;2015;-78
2021/07/07 04:09:28;;;;;;;;;;;17.90;99.90;;;16.90;100.00;95667.19;10505220;28;2133;-81
2021/07/07 04:14:31;;;;;;;;;;;17.80;99.90;;;16.86;100.00;95679.78;10506339;28;2086;-79
2021/07/07 04:19:54;;;;;;;;;;;17.80;99.90;;;16.92;100.00;95713.81;10503589;28;2155;-81
2021/07/07 04:25:16;;;;;;;;;;;17.80;99.90;;;17.11;100.00;95730.63;10509843;28;2058;-78
2021/07/07 04:30:39;;;;;;;;;;;17.90;99.90;;;17.14;100.00;95740.88;10494902;28;1995;-79
2021/07/07 04:36:02;;;;;;;;;;;18.00;99.90;;;17.08;100.00;95753.00;10493610;28;2014;-80
2021/07/07 04:41:25;;;;;;;;;;;18.00;99.90;;;17.11;100.00;95730.63;10498346;28;2112;-78
2021/07/07 04:46:46;;;;;;;;;;;18.00;99.90;;;17.10;100.00;95737.19;10496598;28;1935;-79
2021/07/07 04:52:07;;;;;;;;;;;18.00;99.90;;;16.92;100.00;95724.66;10506057;28;2090;-81
2021/07/07 04:57:28;;;;;;;;;;;17.90;99.90;;;16.88;100.00;95716.38;10501491;28;2539;-79
2021/07/07 05:02:32;;;;;;;;;;;17.80;99.90;;;16.95;100.00;95696.91;10487705;28;2212;-79
2021/07/07 05:07:49;;;;;;;;;;;17.80;99.90;;;16.92;100.00;95705.66;10494474;28;2776;-79
2021/07/07 05:12:53;;;;;;;;;;;17.80;99.90;;;17.12;100.00;95721.38;10502092;28;2086;-79
2021/07/07 05:17:56;;;;;;;;;;;17.90;99.90;;;17.24;100.00;95713.44;10502703;28;2026;-78
2021/07/07 05:22:58;;;;;;;;;;;17.90;99.90;;;17.56;100.00;95738.56;10496357;28;2027;-80
2021/07/07 05:28:02;;;;;;;;;;;18.10;99.90;;;17.89;100.00;95740.81;10471416;28;2034;-78
2021/07/07 05:33:06;;;;;;;;;;;18.50;99.90;;;17.93;100.00;95744.50;10503184;28;2144;-81
2021/07/07 05:38:10;;;;;;;;;;;18.60;99.90;;;17.72;100.00;95739.69;10493583;28;2091;-80
2021/07/07 05:43:13;;;;;;;;;;;18.60;99.90;;;17.70;100.00;95746.56;10492313;28;2649;-80
2021/07/07 05:48:15;;;;;;;;;;;18.50;99.90;;;17.55;100.00;95750.53;10488927;28;2642;-79
2021/07/07 05:53:18;;;;;;;;;;;18.50;99.90;;;17.52;100.00;95748.44;10491415;28;2654;-78
2021/07/07 05:58:21;;;;;;;;;;;18.50;99.90;;;17.58;100.00;95749.91;10485674;28;2089;-80
2021/07/07 06:03:24;;;;;;;;;;;18.50;99.90;;;17.54;100.00;95757.88;10504789;28;2089;-79
2021/07/07 06:08:26;;;;;;;;;;;18.40;99.90;;;17.42;100.00;95751.47;10489470;28;2094;-78
2021/07/07 06:13:29;;;;;;;;;;;18.40;99.90;;;17.44;100.00;95749.25;10489571;28;2623;-79
2021/07/07 06:18:32;;;;;;;;;;;18.40;99.90;;;17.25;100.00;95772.06;10497293;28;2008;-78
2021/07/07 06:23:35;;;;;;;;;;;18.20;99.90;;;17.17;100.00;95767.38;10482400;28;2063;-78
2021/07/07 06:28:38;;;;;;;;;;;18.10;99.90;;;17.15;100.00;95766.13;10488695;28;2028;-79
2021/07/07 06:33:41;;;;;;;;;;;18.10;99.90;;;17.19;100.00;95765.19;10482783;28;2103;-79
2021/07/07 06:38:43;;;;;;;;;;;18.10;99.90;;;17.17;100.00;95767.38;10476624;28;2239;-79
2021/07/07 06:43:46;;;;;;;;;;;18.10;99.90;;;17.36;100.00;95771.75;10490989;28;2132;-79
2021/07/07 06:48:49;;;;;;;;;;;18.20;99.90;;;17.48;100.00;95780.09;10486090;28;2125;-79
2021/07/07 06:53:51;;;;;;;;;;;18.40;99.90;;;17.61;100.00;95770.19;10495469;28;2168;-77
2021/07/07 06:58:54;;;;;;;;;;;18.40;99.90;;;17.74;100.00;95756.47;10492646;28;2058;-80
2021/07/07 07:03:58;;;;;;;;;;;18.50;99.90;;;17.88;98.94;95769.13;10500652;28;2132;-79
2021/07/07 07:09:00;;;;;;;;;;;18.70;99.90;;;18.30;96.02;95776.44;10493513;28;2557;-79
2021/07/07 07:14:03;;;;;;;;;;;18.90;99.90;;;18.38;94.11;95793.88;10491803;28;2296;-80
2021/07/07 07:19:06;;;;;;;;;;;19.00;99.90;;;18.35;93.98;95789.91;10491741;28;2145;-80
2021/07/07 07:24:09;;;;;;;;;;;19.10;99.90;;;18.37;96.16;95793.09;10502846;28;2491;-81
2021/07/07 07:29:12;;;;;;;;;;;19.20;99.90;;;18.34;93.64;95791.03;10483536;28;2103;-80
2021/07/07 07:34:15;;;;;;;;;;;19.30;99.90;;;18.22;94.21;95803.69;10504404;28;2241;-80
2021/07/07 07:39:22;;;;;;;;;;;19.30;99.90;;;18.25;93.39;95806.53;10497235;28;2728;-79
2021/07/07 07:44:24;;;;;;;;;;;19.10;99.90;;;18.09;94.95;95805.44;10490605;28;2051;-80
2021/07/07 07:49:27;;;;;;;;;;;19.00;99.90;;;18.12;93.37;95796.63;10497752;28;2101;-79
2021/07/07 07:54:30;;;;;;;;;;;19.00;99.90;;;17.86;92.17;95809.44;10494261;28;2095;-79
2021/07/07 07:59:33;;;;;;;;;;;18.90;99.90;;;17.94;90.47;95824.94;10493827;28;2117;-78
2021/07/07 08:04:36;;;;;;;;;;;18.80;99.90;;;17.88;94.21;95840.66;10500823;28;2204;-80
2021/07/07 08:09:38;;;;;;;;;;;18.80;99.90;;;17.79;94.83;95828.94;10478195;28;2031;-80
2021/07/07 08:14:41;;;;;;;;;;;18.80;99.90;;;17.60;95.56;95828.41;10493125;28;2543;-78
2021/07/07 08:19:44;;;;;;;;;;;18.70;99.90;;;17.74;98.10;95848.91;10492113;28;2653;-80
2021/07/07 08:24:46;;;;;;;;;;;18.60;99.90;;;17.90;98.66;95853.91;10497013;28;2212;-79
2021/07/07 08:29:49;;;;;;;;;;;18.70;99.90;;;17.98;95.16;95848.47;10492991;28;2074;-79
2021/07/07 08:34:52;;;;;;;;;;;18.80;99.90;;;18.05;95.24;95848.00;10486351;28;2332;-80
2021/07/07 08:39:54;;;;;;;;;;;18.90;99.90;;;18.46;93.04;95854.91;10489158;28;2038;-78
2021/07/07 08:44:57;;;;;;;;;;;19.00;99.90;;;18.77;88.76;95850.06;10499529;28;2189;-80
2021/07/07 08:50:00;;;;;;;;;;;19.40;99.90;;;19.37;86.42;95865.41;10489562;28;1903;-79
2021/07/07 08:55:03;;;;;;;;;;;19.80;99.90;;;18.96;86.24;95876.13;10500116;28;2066;-78
2021/07/07 09:00:05;;;;;;;;;;;19.90;99.90;;;18.94;90.42;95875.66;10498687;28;2093;-79
2021/07/07 09:05:08;;;;;;;;;;;19.80;99.90;;;18.80;91.20;95882.09;10487800;28;2074;-79
2021/07/07 09:10:11;;;;;;;;;;;19.70;99.90;;;18.47;92.83;95889.16;10495321;28;2736;-80
2021/07/07 09:15:13;;;;;;;;;;;19.50;99.90;;;18.36;92.89;95897.63;10493023;28;2078;-80
2021/07/07 09:20:16;;;;;;;;;;;19.40;99.90;;;18.07;94.48;95909.16;10492769;28;2153;-79
2021/07/07 09:25:20;;;;;;;;;;;19.10;99.90;;;18.15;95.78;95904.03;10496282;28;2728;-80
2021/07/07 09:30:22;;;;;;;;;;;19.00;99.90;;;18.49;93.97;95905.94;10486954;28;2251;-79
2021/07/07 09:35:25;;;;;;;;;;;19.10;99.90;;;18.57;92.73;95908.66;10500450;28;2649;-79
2021/07/07 09:40:29;;;;;;;;;;;19.30;99.90;;;19.23;90.89;95908.44;10488887;28;2055;-80
2021/07/07 09:45:32;;;;;;;;;;;19.70;99.90;;;18.82;91.26;95904.34;10510145;28;2070;-80
2021/07/07 09:50:35;;;;;;;;;;;19.90;99.90;;;19.04;88.13;95918.91;10497963;28;2740;-78
2021/07/07 09:55:37;;;;;;;;;;;20.00;99.90;;;19.61;84.58;95918.59;10499114;28;2219;-80
2021/07/07 10:00:40;;;;;;;;;;;20.20;99.90;;;19.32;87.44;95925.53;10497275;28;2693;-79
2021/07/07 10:05:43;;;;;;;;;;;20.20;99.90;;;19.61;85.39;95926.78;10501792;28;2198;-80
2021/07/07 10:10:46;;;;;;;;;;;20.40;99.90;;;20.25;83.13;95929.31;10503378;28;2705;-81
2021/07/07 10:15:50;;;;;;;;;;;20.50;99.90;;;20.63;79.89;95928.41;10516672;28;2633;-81
2021/07/07 10:20:53;;;;;;;;;;;21.00;99.90;;;20.30;80.03;95920.94;10508196;28;2638;-80
2021/07/07 10:25:55;;;;;;;;;;;21.10;99.90;;;20.04;80.19;95917.53;10514388;28;2049;-80
2021/07/07 10:30:59;;;;;;;;;;;21.10;99.90;;;21.64;73.60;95925.31;10518355;28;2609;-81
2021/07/07 10:36:01;;;;;;;;;;;21.70;99.90;;;22.34;71.59;95909.56;10497270;28;2243;-82
2021/07/07 10:41:04;;;;;;;;;;;22.30;99.90;;;22.40;65.38;95919.16;10514117;28;2582;-81
2021/07/07 10:46:07;;;;;;;;;;;22.90;99.90;;;22.49;64.84;95917.06;10494380;28;2046;-81
2021/07/07 10:51:10;;;;;;;;;;;23.10;99.90;;;22.56;65.73;95930.97;10490858;28;2077;-80
2021/07/07 10:56:13;;;;;;;;;;;23.20;99.90;;;23.78;59.52;95929.59;10511205;28;2129;-79
2021/07/07 11:01:15;;;;;;;;;;;23.70;99.90;;;23.62;59.16;95924.13;10509273;28;2012;-80
2021/07/07 11:06:18;;;;;;;;;;;24.20;99.90;;;22.38;64.24;95930.41;10507589;28;2054;-79
2021/07/07 11:11:22;;;;;;;;;;;23.70;99.90;;;22.69;61.32;95926.25;10509922;28;2622;-80
2021/07/07 11:16:25;;;;;;;;;;;23.50;99.90;;;22.88;60.76;95925.63;10516322;28;2550;-81
2021/07/07 11:21:28;;;;;;;;;;;23.40;99.90;;;23.57;59.93;95927.09;10518364;28;2126;-80
2021/07/07 11:26:30;;;;;;;;;;;23.70;99.90;;;23.62;59.04;95924.13;10495101;28;2214;-79
2021/07/07 11:31:33;;;;;;;;;;;24.20;99.90;;;23.04;59.28;95915.53;10487950;28;2302;-79
2021/07/07 11:36:36;;;;;;;;;;;24.20;99.90;;;24.07;56.21;95902.84;10499230;28;2404;-78
2021/07/07 11:41:41;;;;;;;;;;;24.20;99.90;;;24.22;55.07;95905.53;10504896;28;1927;-80
2021/07/07 11:46:43;;;;;;;;;;;24.40;99.90;;;23.29;58.91;95916.19;10517501;28;2361;-79
2021/07/07 11:51:46;;;;;;;;;;;24.30;99.90;;;23.19;59.56;95930.41;10506807;28;2393;-80
2021/07/07 11:56:49;;;;;;;;;;;24.00;99.90;;;;;;10521684;28;2622;-79
2021/07/07 12:01:51;;;;;;;;;;;23.40;99.90;;;21.81;63.68;95923.16;10518419;28;2239;-78
2021/07/07 12:06:54;;;;;;;;;;;23.00;99.90;;;21.45;65.34;95925.88;10536953;28;2087;-82
2021/07/07 12:11:57;;;;;;;;;;;22.60;99.90;;;20.66;69.34;95916.81;10520353;28;2333;-80
2021/07/07 12:17:00;;;;;;;;;;;22.10;99.90;;;20.72;68.26;95902.59;10513291;28;1939;-80
2021/07/07 12:22:03;;;;;;;;;;;21.80;99.90;;;20.87;69.02;95901.19;10523571;28;2641;-79
2021/07/07 12:27:05;;;;;;;;;;;21.60;99.90;;;20.91;68.66;95902.09;10500448;28;2335;-81
2021/07/07 12:32:08;;;;;;;;;;;21.70;99.90;;;20.91;68.10;95902.09;10502585;28;2218;-80
2021/07/07 12:37:11;;;;;;;;;;;21.70;99.90;;;21.23;66.63;95896.97;10505583;28;2345;-79
2021/07/07 12:42:17;;;;;;;;;;;21.90;99.90;;;21.12;67.79;95901.25;10510987;28;2393;-81
2021/07/07 12:47:20;;;;;;;;;;;22.10;99.90;;;20.96;68.58;95896.44;10516884;28;1583;-82
2021/07/07 12:52:23;;;;;;;;;;;22.00;99.90;;;20.74;69.12;95894.06;10478074;28;2424;-79
2021/07/07 12:57:26;;;;;;;;;;;21.80;99.90;;;21.03;68.82;95893.94;10492374;28;2346;-81
2021/07/07 13:02:28;;;;;;;;;;;21.80;99.90;;;20.93;66.74;95905.31;10527955;28;2400;-83
2021/07/07 13:07:31;;;;;;;;;;;21.80;99.90;;;20.46;67.66;95912.94;10534705;28;2312;-80
2021/07/07 13:12:34;;;;;;;;;;;21.70;99.90;;;20.84;65.88;95904.59;10523934;28;2360;-80
2021/07/07 13:17:37;;;;;;;;;;;21.60;99.90;;;21.14;64.84;95909.94;10527743;28;2398;-84
2021/07/07 13:22:40;;;;;;;;;;;21.70;99.90;;;21.34;63.35;95913.75;10524244;28;1580;-82
2021/07/07 13:27:43;;;;;;;;;;;21.90;99.90;;;21.23;64.32;95919.63;10528032;28;1869;-79
2021/07/07 13:32:46;;;;;;;;;;;22.00;99.90;;;21.16;65.10;95913.91;10525454;28;1964;-81
2021/07/07 13:37:49;;;;;;;;;;;22.00;99.90;;;20.89;67.68;95909.84;10477831;28;1604;-81
2021/07/07 13:42:52;;;;;;;;;;;21.90;99.90;;;20.78;68.48;95914.13;10507517;28;1752;-83
2021/07/07 13:47:55;;;;;;;;;;;21.70;99.90;;;20.48;69.04;95916.13;10503446;28;2313;-82
2021/07/07 13:52:58;;;;;;;;;;;21.50;99.90;;;20.44;68.72;95905.06;10497323;28;2435;-83
2021/07/07 13:58:01;;;;;;;;;;;21.60;99.90;;;21.06;66.66;95903.44;10507320;28;2388;-80
2021/07/07 14:03:03;;;;;;;;;;;21.60;99.90;;;21.10;65.53;95898.88;10521207;28;2310;-81
2021/07/07 14:08:06;;;;;;;;;;;21.90;99.90;;;21.97;63.35;95900.59;10502647;28;2219;-81
2021/07/07 14:13:09;;;;;;;;;;;22.30;99.90;;;21.82;63.59;95893.84;10523833;28;2331;-82
2021/07/07 14:18:12;;;;;;;;;;;22.50;99.90;;;21.61;64.88;95895.91;10508545;28;2692;-83
2021/07/07 14:23:15;;;;;;;;;;;22.50;99.90;;;21.66;66.33;95898.41;10516459;28;2438;-83
2021/07/07 14:28:17;;;;;;;;;;;22.50;99.90;;;21.48;66.41;95900.56;10513234;28;2340;-81
2021/07/07 14:33:20;;;;;;;;;;;22.50;99.90;;;21.52;68.40;95915.97;10517457;28;2306;-84
2021/07/07 14:38:23;;;;;;;;;;;22.30;99.90;;;21.47;67.69;95902.50;10530504;28;2301;-82
2021/07/07 14:43:26;;;;;;;;;;;22.30;99.90;;;21.02;69.67;95908.75;10535075;28;1743;-85
2021/07/07 14:48:30;;;;;;;;;;;22.20;99.90;;;21.00;70.14;95915.69;10499957;28;1289;-85
2021/07/07 14:53:32;;;;;;;;;;;21.90;99.90;;;20.97;68.80;95916.38;10518994;28;2349;-85
2021/07/07 14:58:35;;;;;;;;;;;21.90;99.90;;;20.76;69.36;95913.69;10545294;28;1722;-83
2021/07/07 15:03:38;;;;;;;;;;;21.70;99.90;;;21.09;67.58;95904.69;10516341;28;2377;-81
2021/07/07 15:08:41;;;;;;;;;;;21.80;99.90;;;21.14;66.53;95905.25;10512623;28;2467;-79
2021/07/07 15:13:43;;;;;;;;;;;22.00;99.90;;;21.20;65.02;95905.84;10530300;28;1953;-82
2021/07/07 15:18:46;;;;;;;;;;;22.00;99.90;;;21.23;65.72;95903.22;10526374;28;1370;-82
2021/07/07 15:23:49;;;;;;;;;;;22.00;99.90;;;21.43;63.97;95907.03;10527022;28;1592;-81
2021/07/07 15:28:52;;;;;;;;;;;22.10;99.90;;;21.07;64.68;95915.16;10531747;28;2729;-81
2021/07/07 15:33:55;;;;;;;;;;;22.10;99.90;;;21.59;63.08;95913.44;10507078;28;2194;-82
2021/07/07 15:39:00;;;;;;;;;;;22.10;99.90;;;21.34;63.57;95920.03;10508205;28;2309;-84
2021/07/07 15:44:03;;;;;;;;;;;22.30;99.90;;;21.33;63.22;95917.63;10477430;28;1665;-82
2021/07/07 15:49:06;;;;;;;;;;;22.20;99.90;;;21.23;63.39;95913.34;10510807;28;2387;-81
2021/07/07 15:54:09;;;;;;;;;;;22.30;99.90;;;21.21;63.12;95910.97;10492938;28;2737;-82
2021/07/07 15:59:12;;;;;;;;;;;22.10;99.90;;;21.23;63.15;95921.56;10505342;28;2128;-82
2021/07/07 16:04:18;;;;;;;;;;;22.00;99.90;;;21.29;63.14;95926.50;10494790;28;1599;-84
2021/07/07 16:09:23;;;;;;;;;;;22.00;99.90;;;21.02;64.36;95925.16;10481998;28;2591;-81
2021/07/07 16:14:27;;;;;;;;;;;22.00;99.90;;;21.05;64.34;95918.19;10506081;28;2716;-83
2021/07/07 16:19:30;;;;;;;;;;;21.90;99.90;;;21.37;62.12;95913.88;10491554;28;2290;-83
2021/07/07 16:24:35;;;;;;;;;;;22.10;99.90;;;21.59;63.10;95913.44;10471348;28;2018;-82
2021/07/07 16:29:38;;;;;;;;;;;22.20;99.90;;;21.71;61.89;95925.56;10494070;28;2357;-83
2021/07/07 16:34:41;;;;;;;;;;;22.40;99.90;;;20.95;64.17;95918.66;10521232;28;2284;-84
2021/07/07 16:39:44;;;;;;;;;;;22.20;99.90;;;21.33;63.15;95918.44;10509925;28;2210;-80
2021/07/07 16:44:49;;;;;;;;;;;22.10;99.90;;;20.94;63.74;95911.59;10528665;28;1970;-83
2021/07/07 16:49:52;;;;;;;;;;;22.00;99.90;;;20.93;65.07;95921.72;10538888;28;2333;-81
2021/07/07 16:54:55;;;;;;;;;;;21.90;99.90;;;20.67;65.59;95912.94;10490749;28;2187;-82
2021/07/07 16:59:58;;;;;;;;;;;21.70;99.90;;;20.61;65.97;95917.78;10486729;28;2288;-83
2021/07/07 17:05:01;;;;;;;;;;;21.60;99.90;;;20.40;72.35;95922.44;10471023;28;2205;-83
2021/07/07 17:10:04;;;;;;;;;;;21.50;99.90;;;20.55;73.96;95919.16;10471385;28;2248;-83
2021/07/07 17:15:07;;;;;;;;;;;21.40;99.90;;;20.28;76.11;95912.25;10490168;28;2362;-83
2021/07/07 17:20:10;;;;;;;;;;;21.40;99.90;;;19.88;80.13;95926.31;10502723;28;1707;-81
2021/07/07 17:25:12;;;;;;;;;;;21.10;99.90;;;19.87;82.30;95935.63;10467371;28;1596;-83
2021/07/07 17:30:15;;;;;;;;;;;21.00;99.90;;;19.71;84.11;95932.63;10514648;28;1957;-80
2021/07/07 17:35:19;;;;;;;;;;;20.90;99.90;;;19.80;83.40;95940.81;10518039;28;1560;-81
2021/07/07 17:40:22;;;;;;;;;;;20.80;99.90;;;19.53;85.71;95952.91;10515859;28;1255;-85
2021/07/07 17:45:25;;;;;;;;;;;20.70;99.90;;;19.35;87.32;95946.72;10521565;28;1549;-86
2021/07/07 17:50:28;;;;;;;;;;;20.50;99.90;;;19.33;88.11;95943.50;10516657;28;1952;-85
2021/07/07 17:55:31;;;;;;;;;;;20.40;99.90;;;19.35;88.78;95944.00;10526663;28;1372;-84
2021/07/07 18:00:34;;;;;;;;;;;20.30;99.90;;;19.17;90.53;95950.59;10509410;28;1605;-84
2021/07/07 18:05:37;;;;;;;;;;;20.30;99.90;;;19.09;91.61;95959.59;10485795;28;1762;-85
2021/07/07 18:10:45;;;;;;;;;;;20.20;99.90;;;19.17;91.16;95939.72;10482365;28;1921;-87
2021/07/07 18:15:48;;;;;;;;;;;20.10;99.90;;;19.30;91.23;95938.72;10494790;28;2454;-87
2021/07/07 18:20:53;;;;;;;;;;;20.20;99.90;;;19.24;91.12;95940.00;10475362;28;2348;-85
2021/07/07 18:25:58;;;;;;;;;;;20.30;99.90;;;19.00;92.70;95937.00;10489784;28;2318;-82
2021/07/07 18:31:00;;;;;;;;;;;20.20;99.90;;;18.93;93.34;95944.88;10488540;28;2276;-80
2021/07/07 18:36:03;;;;;;;;;;;20.00;99.90;;;18.86;94.21;95948.88;10486524;28;2349;-84
2021/07/07 18:41:06;;;;;;;;;;;19.90;99.90;;;18.82;94.42;95942.47;10489126;28;2409;-85
2021/07/07 18:46:10;;;;;;;;;;;19.90;99.90;;;18.69;94.46;95959.78;10489425;28;2757;-83
2021/07/07 18:51:13;;;;;;;;;;;19.80;99.90;;;18.55;95.45;95949.03;10489011;28;1985;-83
2021/07/07 18:56:15;;;;;;;;;;;19.70;99.90;;;18.55;95.66;95957.19;10484558;28;1627;-83
2021/07/07 19:01:18;;;;;;;;;;;19.60;99.90;;;18.39;96.13;95950.63;10478563;28;1374;-83
2021/07/07 19:06:24;;;;;;;;;;;19.50;99.90;;;18.35;96.92;95953.19;10504561;28;1675;-82
2021/07/07 19:11:27;;;;;;;;;;;19.40;99.90;;;18.27;97.30;95943.09;10536568;28;2707;-84
2021/07/07 19:16:30;;;;;;;;;;;19.30;99.90;;;18.19;97.71;95954.75;10519156;28;1783;-84
2021/07/07 19:21:33;;;;;;;;;;;19.20;99.90;;;18.08;98.70;95956.97;10538144;28;1532;-84
2021/07/07 19:26:36;;;;;;;;;;;19.20;99.90;;;18.13;98.46;95966.91;10511236;28;2658;-82
2021/07/07 19:31:41;;;;;;;;;;;19.20;99.90;;;18.06;99.07;95974.72;10479342;28;1919;-82
2021/07/07 19:36:44;;;;;;;;;;;19.10;99.90;;;18.10;98.99;95981.13;10499859;28;1283;-80
2021/07/07 19:41:47;;;;;;;;;;;19.10;99.90;;;18.08;99.07;95988.81;10518724;28;1723;-82
2021/07/07 19:46:49;;;;;;;;;;;19.10;99.90;;;18.11;98.83;96001.78;10517147;28;1151;-82
2021/07/07 19:51:53;;;;;;;;;;;19.10;99.90;;;18.22;98.12;95997.66;10529478;28;1962;-82
2021/07/07 19:56:55;;;;;;;;;;;19.20;99.90;;;18.16;98.59;96004.38;10528765;28;2640;-83
2021/07/07 20:01:58;;;;;;;;;;;19.20;99.90;;;18.12;98.95;95992.50;10509962;28;1237;-83
2021/07/07 20:07:01;;;;;;;;;;;19.10;99.90;;;18.09;99.02;95998.59;10528577;28;1486;-81
2021/07/07 20:12:04;;;;;;;;;;;19.10;99.90;;;17.98;99.61;96003.50;10499658;28;1894;-82
2021/07/07 20:17:07;;;;;;;;;;;19.00;99.90;;;17.99;99.54;96004.31;10512082;28;1494;-83
2021/07/07 20:22:10;;;;;;;;;;;19.00;99.90;;;17.91;99.94;96010.53;10524354;28;1589;-84
2021/07/07 20:27:13;;;;;;;;;;;19.00;99.90;;;17.90;100.00;95998.03;10511197;28;1557;-85
2021/07/07 20:32:16;;;;;;;;;;;18.90;99.90;;;17.78;100.00;96009.50;10522778;28;1878;-83
2021/07/07 20:37:19;;;;;;;;;;;18.80;99.90;;;17.86;100.00;95999.78;10536271;28;1755;-85
2021/07/07 20:42:22;;;;;;;;;;;18.80;99.90;;;17.75;100.00;96000.06;10515816;28;1591;-84
2021/07/07 20:47:25;;;;;;;;;;;18.80;99.90;;;17.85;100.00;95998.19;10508947;28;1417;-84
2021/07/07 20:52:28;;;;;;;;;;;18.80;99.90;;;17.85;100.00;95995.47;10496652;28;1921;-83
2021/07/07 20:57:33;;;;;;;;;;;18.80;99.90;;;17.88;100.00;96005.69;10494211;28;1372;-84
2021/07/07 21:02:36;;;;;;;;;;;18.90;99.90;;;17.83;100.00;96007.47;10505860;28;1600;-83
2021/07/07 21:07:39;;;;;;;;;;;18.80;99.90;;;17.78;100.00;95999.44;10514068;28;1603;-84
2021/07/07 21:12:42;;;;;;;;;;;18.80;99.90;;;17.74;100.00;95997.66;10491126;28;1906;-84
2021/07/07 21:17:45;;;;;;;;;;;18.80;99.90;;;17.69;100.00;96009.44;10496971;28;1713;-81
2021/07/07 21:22:49;;;;;;;;;;;18.70;99.90;;;17.84;100.00;96030.00;10512714;28;1309;-83
2021/07/07 21:27:52;;;;;;;;;;;18.80;99.90;;;17.86;100.00;96032.41;10494255;28;1626;-83
2021/07/07 21:32:56;;;;;;;;;;;18.80;99.90;;;17.76;100.00;96028.88;10509646;28;1910;-85
2021/07/07 21:37:58;;;;;;;;;;;18.80;99.90;;;17.72;100.00;96041.47;10491573;28;1532;-84
2021/07/07 21:43:01;;;;;;;;;;;18.70;99.90;;;17.75;100.00;96059.91;10505083;28;2257;-84
2021/07/07 21:48:04;;;;;;;;;;;18.70;99.90;;;17.78;100.00;96064.69;10511255;28;2300;-82
2021/07/07 21:53:07;;;;;;;;;;;18.80;99.90;;;17.22;100.00;96051.69;10514075;28;2297;-84
2021/07/07 21:58:10;;;;;;;;;;;18.50;99.90;;;16.93;100.00;96038.53;10491119;28;2274;-82
2021/07/07 22:03:13;;;;;;;;;;;18.10;99.90;;;16.87;100.00;96024.28;10476535;28;2270;-81
2021/07/07 22:08:15;;;;;;;;;;;17.90;99.90;;;16.75;100.00;96024.81;10489149;28;2316;-82
2021/07/07 22:13:18;;;;;;;;;;;17.80;99.90;;;16.69;100.00;96046.91;10496532;28;2585;-83
2021/07/07 22:18:24;;;;;;;;;;;17.70;99.90;;;16.58;100.00;96032.78;10476120;28;2393;-82
2021/07/07 22:23:27;;;;;;;;;;;17.60;99.90;;;16.54;100.00;96022.81;10487044;28;2185;-83
2021/07/07 22:28:30;;;;;;;;;;;17.50;99.90;;;16.43;100.00;95997.84;10488475;28;2331;-81
2021/07/07 22:33:33;;;;;;;;;;;17.50;99.90;;;16.47;100.00;95998.81;10492264;28;2243;-81
2021/07/07 22:38:36;;;;;;;;;;;17.30;99.90;;;16.28;100.00;95998.16;10511864;28;2238;-81
2021/07/07 22:43:40;;;;;;;;;;;17.30;99.90;;;16.28;100.00;96006.28;10518338;28;2234;-82
2021/07/07 22:48:43;;;;;;;;;;;17.20;99.90;;;16.33;100.00;96017.03;10513544;28;2234;-80
2021/07/07 22:53:46;;;;;;;;;;;17.30;99.90;;;16.34;100.00;96005.06;10503541;28;2336;-82
2021/07/07 22:58:48;;;;;;;;;;;17.30;99.90;;;16.30;100.00;96009.53;10503807;28;2251;-82
2021/07/07 23:03:51;;;;;;;;;;;17.30;99.90;;;16.22;100.00;96008.31;10490409;28;2088;-82
2021/07/07 23:08:54;;;;;;;;;;;17.20;99.90;;;16.25;100.00;96002.28;10465596;28;2321;-82